createdAt,value
2023-02-17T00:00:12.810Z,95844.72
2023-02-17T00:03:21.084Z,95840.94
2023-02-17T00:06:32.130Z,95839.28
2023-02-17T00:09:40.510Z,95830.19
2023-02-17T00:12:48.657Z,95834.78
2023-02-17T00:15:58.322Z,95824.72
2023-02-17T00:19:24.878Z,95833.19
2023-02-17T00:22:33.378Z,95829.38
2023-02-17T00:25:41.842Z,95831.69
2023-02-17T00:28:50.376Z,95834.78
2023-02-17T00:32:00.357Z,95836.34
2023-02-17T00:35:09.059Z,95836.69
2023-02-17T00:38:17.254Z,95831.56
2023-02-17T00:41:27.537Z,95828.22
2023-02-17T00:44:38.603Z,95827.41
2023-02-17T00:47:48.121Z,95833.53
2023-02-17T00:50:58.741Z,95833.00
2023-02-17T00:54:08.046Z,95833.84
2023-02-17T00:57:16.286Z,95833.84
2023-02-17T01:00:24.723Z,95830.88
2023-02-17T01:03:36.006Z,95836.03
2023-02-17T01:06:44.286Z,95827.75
2023-02-17T01:09:52.450Z,95831.72
2023-02-17T01:13:00.650Z,95826.59
2023-02-17T01:16:18.560Z,95823.78
2023-02-17T01:19:28.190Z,95826.41
2023-02-17T01:22:36.408Z,95817.31
2023-02-17T01:25:47.970Z,95813.97
2023-02-17T01:28:57.431Z,95822.59
2023-02-17T01:32:06.151Z,95809.78
2023-02-17T01:35:15.863Z,95817.06
2023-02-17T01:38:23.958Z,95817.22
2023-02-17T01:41:32.078Z,95825.97
2023-02-17T01:45:42.580Z,95809.66
2023-02-17T01:48:52.536Z,95813.63
2023-02-17T01:52:11.029Z,95806.91
2023-02-17T01:55:22.891Z,95808.75
2023-02-17T01:58:33.717Z,95801.34
2023-02-17T02:01:41.927Z,95802.97
2023-02-17T02:04:54.228Z,95797.69
2023-02-17T02:08:04.107Z,95794.13
2023-02-17T02:16:13.042Z,95791.16
2023-02-17T02:20:04.136Z,95794.66
2023-02-17T02:23:54.241Z,95795.84
2023-02-17T02:27:43.652Z,95795.22
2023-02-17T02:31:28.992Z,95794.03
2023-02-17T02:34:48.106Z,95801.97
2023-02-17T02:38:07.445Z,95798.84
2023-02-17T02:41:23.434Z,95801.16
2023-02-17T02:44:32.336Z,95806.81
2023-02-17T02:47:47.738Z,95803.56
2023-02-17T02:51:19.771Z,95805.88
2023-02-17T02:54:42.684Z,95803.66
2023-02-17T02:58:03.587Z,95797.91
2023-02-17T03:01:20.785Z,95795.88
2023-02-17T03:04:36.783Z,95792.91
2023-02-17T03:07:57.283Z,95791.59
2023-02-17T03:11:06.488Z,95792.41
2023-02-17T03:14:21.432Z,95786.31
2023-02-17T03:17:33.132Z,95782.63
2023-02-17T03:20:50.114Z,95781.00
2023-02-17T03:23:59.584Z,95782.28
2023-02-17T03:27:08.043Z,95785.25
2023-02-17T03:30:16.602Z,95776.69
2023-02-17T03:33:24.928Z,95781.31
2023-02-17T03:36:34.072Z,95780.28
2023-02-17T03:39:43.790Z,95778.97
2023-02-17T03:42:51.900Z,95774.66
2023-02-17T03:46:00.208Z,95776.19
2023-02-17T03:49:08.413Z,95772.69
2023-02-17T03:52:16.509Z,95775.34
2023-02-17T03:55:25.943Z,95768.75
2023-02-17T03:58:34.080Z,95770.88
2023-02-17T04:01:42.397Z,95774.34
2023-02-17T04:04:50.519Z,95767.25
2023-02-17T04:07:58.665Z,95758.78
2023-02-17T04:11:10.307Z,95761.63
2023-02-17T04:14:18.488Z,95764.44
2023-02-17T04:17:26.875Z,95754.50
2023-02-17T04:20:35.133Z,95756.50
2023-02-17T04:23:43.240Z,95761.13
2023-02-17T04:26:52.861Z,95763.09
2023-02-17T04:30:01.187Z,95760.47
2023-02-17T04:33:09.431Z,95756.81
2023-02-17T04:36:18.753Z,95756.34
2023-02-17T04:39:27.123Z,95752.88
2023-02-17T04:42:36.698Z,95755.53
2023-02-17T04:45:44.849Z,95750.38
2023-02-17T04:48:52.990Z,95749.88
2023-02-17T04:52:01.165Z,95759.47
2023-02-17T04:55:10.117Z,95748.88
2023-02-17T04:58:20.732Z,95763.47
2023-02-17T05:01:28.861Z,95753.50
2023-02-17T05:04:37.410Z,95753.50
2023-02-17T05:07:46.919Z,95736.59
2023-02-17T05:10:55.426Z,95737.59
2023-02-17T05:14:04.918Z,95729.63
2023-02-17T05:17:13.133Z,95730.31
2023-02-17T05:20:21.495Z,95715.75
2023-02-17T05:23:29.857Z,95718.53
2023-02-17T05:26:39.075Z,95716.38
2023-02-17T05:29:48.637Z,95714.34
2023-02-17T05:32:57.199Z,95717.88
2023-02-17T05:36:11.659Z,95718.69
2023-02-17T05:39:19.892Z,95719.34
2023-02-17T05:42:28.912Z,95716.00
2023-02-17T05:45:38.618Z,95723.63
2023-02-17T05:48:48.532Z,95735.38
2023-02-17T05:51:56.712Z,95728.22
2023-02-17T05:55:05.548Z,95730.31
2023-02-17T05:58:13.666Z,95734.78
2023-02-17T06:01:23.182Z,95736.13
2023-02-17T06:04:31.351Z,95735.59
2023-02-17T06:07:39.914Z,95734.44
2023-02-17T06:10:48.013Z,95738.63
2023-02-17T06:13:56.126Z,95731.53
2023-02-17T06:17:05.596Z,95736.84
2023-02-17T06:20:14.509Z,95739.47
2023-02-17T06:23:22.676Z,95736.28
2023-02-17T06:26:31.041Z,95738.25
2023-02-17T06:29:39.168Z,95742.69
2023-02-17T06:32:48.943Z,95735.03
2023-02-17T06:35:57.114Z,95744.63
2023-02-17T06:39:05.370Z,95743.22
2023-02-17T06:42:13.644Z,95741.06
2023-02-17T06:45:21.943Z,95742.84
2023-02-17T06:48:33.096Z,95754.00
2023-02-17T06:51:41.961Z,95752.47
2023-02-17T06:54:50.042Z,95752.38
2023-02-17T06:57:58.324Z,95744.03
2023-02-17T07:01:08.822Z,95748.97
2023-02-17T07:04:18.864Z,95744.97
2023-02-17T07:07:26.996Z,95749.19
2023-02-17T07:10:35.664Z,95739.50
2023-02-17T07:13:45.019Z,95734.72
2023-02-17T07:16:53.559Z,95748.78
2023-02-17T07:20:03.382Z,95744.44
2023-02-17T07:23:11.572Z,95745.09
2023-02-17T07:26:19.819Z,95743.19
2023-02-17T07:29:28.400Z,95746.94
2023-02-17T07:32:36.531Z,95735.47
2023-02-17T07:35:46.049Z,95745.69
2023-02-17T07:38:54.473Z,95736.25
2023-02-17T07:42:05.099Z,95737.75
2023-02-17T07:45:14.635Z,95737.66
2023-02-17T07:48:22.769Z,95743.78
2023-02-17T07:51:32.208Z,95746.78
2023-02-17T07:54:40.286Z,95740.69
2023-02-17T07:57:48.444Z,95746.69
2023-02-17T08:00:56.774Z,95750.47
2023-02-17T08:04:05.617Z,95747.91
2023-02-17T08:07:16.344Z,95748.38
2023-02-17T08:10:42.001Z,95754.47
2023-02-17T08:13:50.121Z,95768.97
2023-02-17T08:16:58.825Z,95757.31
2023-02-17T08:20:09.476Z,95757.19
2023-02-17T08:23:20.953Z,95751.75
2023-02-17T08:26:29.410Z,95752.72
2023-02-17T08:29:37.738Z,95758.19
2023-02-17T08:32:47.620Z,95759.78
2023-02-17T08:35:55.824Z,95753.81
2023-02-17T08:39:07.325Z,95766.03
2023-02-17T08:42:15.529Z,95757.25
2023-02-17T08:45:23.985Z,95754.31
2023-02-17T08:48:32.269Z,95750.75
2023-02-17T08:51:40.957Z,95762.47
2023-02-17T08:54:52.696Z,95754.50
2023-02-17T08:58:00.971Z,95766.44
2023-02-17T09:01:09.415Z,95766.97
2023-02-17T09:04:18.368Z,95760.34
2023-02-17T09:07:26.791Z,95772.34
2023-02-17T09:10:37.082Z,95761.81
2023-02-17T09:13:46.213Z,95768.94
2023-02-17T09:16:56.540Z,95767.34
2023-02-17T09:20:16.226Z,95780.28
2023-02-17T09:23:31.242Z,95787.25
2023-02-17T09:26:41.033Z,95786.00
2023-02-17T09:29:49.569Z,95785.66
2023-02-17T09:32:58.365Z,95795.78
2023-02-17T09:36:09.147Z,95783.94
2023-02-17T09:39:17.651Z,95791.47
2023-02-17T09:42:29.654Z,95790.66
2023-02-17T09:45:38.044Z,95786.03
2023-02-17T09:48:50.611Z,95799.13
2023-02-17T09:52:07.348Z,95808.88
2023-02-17T09:55:24.818Z,95795.59
2023-02-17T09:58:40.081Z,95791.34
2023-02-17T10:01:51.706Z,95804.44
2023-02-17T10:05:06.710Z,95809.50
2023-02-17T10:08:23.058Z,95797.19
2023-02-17T10:11:35.982Z,95795.09
2023-02-17T10:14:53.295Z,95794.13
2023-02-17T10:18:12.632Z,95789.69
2023-02-17T10:21:28.685Z,95803.03
2023-02-17T10:24:36.984Z,95798.44
2023-02-17T10:27:55.241Z,95799.34
2023-02-17T10:31:12.793Z,95801.59
2023-02-17T10:34:36.486Z,95796.38
2023-02-17T10:37:57.236Z,95786.66
2023-02-17T10:41:12.437Z,95784.19
2023-02-17T10:44:25.845Z,95780.72
2023-02-17T10:47:40.085Z,95781.16
2023-02-17T10:50:49.941Z,95769.88
2023-02-17T10:54:04.870Z,95768.19
2023-02-17T10:57:18.243Z,95780.28
2023-02-17T11:00:27.102Z,95775.44
2023-02-17T11:03:38.353Z,95780.09
2023-02-17T11:06:51.512Z,95765.66
2023-02-17T11:10:03.844Z,95765.88
2023-02-17T11:13:35.068Z,95758.56
2023-02-17T11:16:47.314Z,95768.00
2023-02-17T11:20:03.971Z,95756.25
2023-02-17T11:23:25.332Z,95749.16
2023-02-17T11:26:37.865Z,95757.25
2023-02-17T11:29:46.142Z,95766.97
2023-02-17T11:32:55.456Z,95744.50
2023-02-17T11:36:10.591Z,95757.66
2023-02-17T11:39:22.243Z,95751.34
2023-02-17T11:42:34.186Z,95760.78
2023-02-17T11:45:55.153Z,95744.28
2023-02-17T11:50:09.594Z,95744.72
2023-02-17T11:53:38.603Z,95731.97
2023-02-17T11:57:01.308Z,95736.38
2023-02-17T12:00:19.362Z,95734.06
2023-02-17T12:03:55.430Z,95735.69
2023-02-17T12:07:37.468Z,95724.78
2023-02-17T12:11:09.169Z,95725.16
2023-02-17T12:14:51.212Z,95714.00
2023-02-17T12:18:15.134Z,95715.81
2023-02-17T12:21:44.854Z,95720.03
2023-02-17T12:25:19.797Z,95720.44
2023-02-17T12:29:01.881Z,95703.09
2023-02-17T12:32:35.791Z,95710.50
2023-02-17T12:35:52.769Z,95698.56
2023-02-17T12:39:12.913Z,95708.06
2023-02-17T12:42:27.896Z,95706.44
2023-02-17T12:45:44.310Z,95697.41
2023-02-17T12:48:59.229Z,95692.00
2023-02-17T12:52:17.872Z,95675.09
2023-02-17T12:55:35.600Z,95688.28
2023-02-17T12:58:44.434Z,95698.22
2023-02-17T13:02:01.692Z,95696.97
2023-02-17T13:05:24.253Z,95692.41
2023-02-17T13:08:44.717Z,95690.53
2023-02-17T13:11:53.038Z,95702.69
2023-02-17T13:15:05.344Z,95696.34
2023-02-17T13:18:30.481Z,95710.94
2023-02-17T13:21:49.297Z,95699.19
2023-02-17T13:24:57.648Z,95696.91
2023-02-17T13:28:37.282Z,95676.31
2023-02-17T13:31:53.699Z,95690.28
2023-02-17T13:35:08.513Z,95697.66
2023-02-17T13:38:35.176Z,95690.66
2023-02-17T13:41:51.671Z,95690.47
2023-02-17T13:45:24.754Z,95709.56
2023-02-17T13:48:46.895Z,95702.59
2023-02-17T13:52:26.015Z,95705.88
2023-02-17T13:55:34.205Z,95699.06
2023-02-17T13:58:43.354Z,95693.94
2023-02-17T14:01:54.650Z,95700.13
2023-02-17T14:05:19.454Z,95693.97
2023-02-17T14:08:38.231Z,95690.28
2023-02-17T14:11:46.592Z,95689.44
2023-02-17T14:14:54.882Z,95681.22
2023-02-17T14:18:14.840Z,95691.94
2023-02-17T14:21:27.560Z,95687.41
2023-02-17T14:24:39.821Z,95698.88
2023-02-17T14:27:51.205Z,95711.56
2023-02-17T14:31:11.186Z,95705.91
2023-02-17T14:34:29.355Z,95709.31
2023-02-17T14:37:37.511Z,95705.13
2023-02-17T14:40:46.991Z,95715.78
2023-02-17T14:43:55.309Z,95706.94
2023-02-17T14:47:06.205Z,95713.53
2023-02-17T14:50:17.330Z,95707.84
2023-02-17T14:53:29.886Z,95705.91
2023-02-17T14:56:47.536Z,95704.06
2023-02-17T14:59:57.699Z,95699.28
2023-02-17T15:03:06.037Z,95700.19
2023-02-17T15:06:17.641Z,95702.47
2023-02-17T15:09:31.606Z,95681.84
2023-02-17T15:12:41.110Z,95693.72
2023-02-17T15:15:50.163Z,95702.75
2023-02-17T15:18:59.304Z,95705.38
2023-02-17T15:22:08.418Z,95702.28
2023-02-17T15:25:22.153Z,95704.09
2023-02-17T15:28:31.691Z,95706.13
2023-02-17T15:31:45.840Z,95705.50
2023-02-17T15:34:54.865Z,95712.91
2023-02-17T15:38:03.250Z,95709.41
2023-02-17T15:41:33.709Z,95700.56
2023-02-17T15:45:01.231Z,95700.06
2023-02-17T15:48:25.331Z,95696.09
2023-02-17T15:51:47.547Z,95695.81
2023-02-17T15:55:06.181Z,95694.94
2023-02-17T15:58:24.624Z,95690.13
2023-02-17T16:01:40.132Z,95683.31
2023-02-17T16:04:49.068Z,95681.06
2023-02-17T16:08:02.911Z,95682.88
2023-02-17T16:11:13.957Z,95692.75
2023-02-17T16:14:27.410Z,95688.16
2023-02-17T16:17:37.322Z,95683.41
2023-02-17T16:20:45.838Z,95688.09
2023-02-17T16:23:59.012Z,95689.88
2023-02-17T16:27:09.678Z,95694.22
2023-02-17T16:30:22.238Z,95683.72
2023-02-17T16:33:31.772Z,95679.28
2023-02-17T16:36:41.056Z,95681.72
2023-02-17T16:39:49.582Z,95688.53
2023-02-17T16:42:58.286Z,95699.91
2023-02-17T16:46:07.898Z,95714.91
2023-02-17T16:49:26.013Z,95703.41
2023-02-17T16:52:40.331Z,95708.94
2023-02-17T16:55:48.870Z,95710.16
2023-02-17T16:59:10.082Z,95714.28
2023-02-17T17:02:26.059Z,95710.72
2023-02-17T17:05:51.582Z,95716.22
2023-02-17T17:09:01.195Z,95711.47
2023-02-17T17:12:12.396Z,95704.03
2023-02-17T17:15:25.771Z,95714.22
2023-02-17T17:18:40.097Z,95714.88
2023-02-17T17:21:53.363Z,95708.63
2023-02-17T17:25:15.001Z,95719.66
2023-02-17T17:28:24.363Z,95725.16
2023-02-17T17:31:37.166Z,95721.06
2023-02-17T17:34:56.856Z,95717.44
2023-02-17T17:38:17.961Z,95719.75
2023-02-17T17:41:40.982Z,95709.44
2023-02-17T17:46:05.234Z,95720.94
2023-02-17T17:49:18.130Z,95724.53
2023-02-17T17:52:27.932Z,95727.44
2023-02-17T17:55:38.157Z,95735.16
2023-02-17T17:58:47.006Z,95735.16
2023-02-17T18:01:55.329Z,95731.69
2023-02-17T18:05:03.809Z,95739.06
2023-02-17T18:08:22.952Z,95731.84
2023-02-17T18:11:49.291Z,95723.41
2023-02-17T18:15:11.093Z,95720.94
2023-02-17T18:18:28.767Z,95721.41
2023-02-17T18:21:51.066Z,95717.91
2023-02-17T18:25:03.562Z,95723.91
2023-02-17T18:28:49.596Z,95714.16
2023-02-17T18:32:13.303Z,95715.25
2023-02-17T18:35:27.545Z,95706.25
2023-02-17T18:38:42.826Z,95719.28
2023-02-17T18:42:07.254Z,95714.88
2023-02-17T18:45:48.837Z,95728.66
2023-02-17T18:49:31.949Z,95721.31
2023-02-17T18:52:50.962Z,95723.81
2023-02-17T18:56:00.033Z,95713.78
2023-02-17T18:59:30.073Z,95707.00
2023-02-17T19:03:17.881Z,95702.94
2023-02-17T19:06:47.219Z,95714.50
2023-02-17T19:10:01.139Z,95703.69
2023-02-17T19:13:14.001Z,95708.63
2023-02-17T19:16:28.402Z,95696.53
2023-02-17T19:19:56.698Z,95709.44
2023-02-17T19:23:06.964Z,95704.59
2023-02-17T19:26:21.908Z,95694.94
2023-02-17T19:29:30.638Z,95701.19
2023-02-17T19:32:39.431Z,95708.63
2023-02-17T19:35:50.261Z,95713.25
2023-02-17T19:38:59.432Z,95708.63
2023-02-17T19:42:08.264Z,95709.28
2023-02-17T19:45:17.169Z,95697.34
2023-02-17T19:48:25.805Z,95702.47
2023-02-17T19:51:36.360Z,95700.44
2023-02-17T19:54:45.107Z,95701.56
2023-02-17T19:57:54.538Z,95705.13
2023-02-17T20:01:07.278Z,95698.78
2023-02-17T20:04:15.505Z,95692.69
2023-02-17T20:07:25.360Z,95701.78
2023-02-17T20:10:34.261Z,95703.09
2023-02-17T20:13:46.562Z,95706.72
2023-02-17T20:16:56.386Z,95720.00
2023-02-17T20:20:05.272Z,95710.47
2023-02-17T20:23:14.837Z,95708.78
2023-02-17T20:26:31.301Z,95714.22
2023-02-17T20:29:39.757Z,95715.13
2023-02-17T20:32:48.094Z,95714.13
2023-02-17T20:35:56.448Z,95708.50
2023-02-17T20:39:06.090Z,95716.22
2023-02-17T20:42:14.323Z,95709.28
2023-02-17T20:45:22.599Z,95721.47
2023-02-17T20:48:30.759Z,95730.03
2023-02-17T20:51:39.550Z,95733.22
2023-02-17T20:54:49.121Z,95724.22
2023-02-17T20:57:57.692Z,95731.66
2023-02-17T21:01:06.351Z,95738.38
2023-02-17T21:04:15.242Z,95743.97
2023-02-17T21:07:23.544Z,95754.59
2023-02-17T21:10:34.574Z,95758.28
2023-02-17T21:13:42.746Z,95774.84
2023-02-17T21:16:50.940Z,95780.28
2023-02-17T21:19:59.198Z,95781.28
2023-02-17T21:23:08.109Z,95772.16
2023-02-17T21:26:18.379Z,95770.91
2023-02-17T21:29:26.977Z,95777.69
2023-02-17T21:32:35.173Z,95787.19
2023-02-17T21:35:43.383Z,95790.47
2023-02-17T21:38:51.678Z,95782.28
2023-02-17T21:42:01.282Z,95788.28
2023-02-17T21:45:09.726Z,95793.78
2023-02-17T21:48:17.963Z,95794.63
2023-02-17T21:51:26.573Z,95795.00
2023-02-17T21:54:34.826Z,95797.47
2023-02-17T21:57:44.343Z,95802.78
2023-02-17T22:00:52.630Z,95813.75
2023-02-17T22:04:02.499Z,95817.31
2023-02-17T22:07:12.056Z,95823.31
2023-02-17T22:10:20.333Z,95822.19
2023-02-17T22:13:29.921Z,95821.75
2023-02-17T22:16:38.772Z,95817.50
2023-02-17T22:19:47.037Z,95820.53
2023-02-17T22:22:55.800Z,95812.75
2023-02-17T22:26:08.738Z,95815.19
2023-02-17T22:29:18.404Z,95824.50
2023-02-17T22:32:26.626Z,95825.88
2023-02-17T22:35:34.869Z,95828.28
2023-02-17T22:38:43.316Z,95830.13
2023-02-17T22:41:51.497Z,95825.25
2023-02-17T22:45:00.989Z,95839.94
2023-02-17T22:48:09.288Z,95837.56
2023-02-17T22:51:20.263Z,95824.44
2023-02-17T22:54:28.351Z,95822.56
2023-02-17T22:57:36.573Z,95819.44
2023-02-17T23:00:46.055Z,95819.28
2023-02-17T23:03:55.221Z,95810.91
2023-02-17T23:07:03.367Z,95819.44
2023-02-17T23:10:12.066Z,95806.59
2023-02-17T23:13:20.222Z,95810.91
2023-02-17T23:16:29.908Z,95813.00
2023-02-17T23:19:40.981Z,95824.84
2023-02-17T23:22:49.311Z,95829.66
2023-02-17T23:25:57.850Z,95823.41
2023-02-17T23:29:06.888Z,95824.50
2023-02-17T23:32:16.802Z,95832.97
2023-02-17T23:35:25.359Z,95834.25
2023-02-17T23:38:34.372Z,95817.97
2023-02-17T23:41:43.149Z,95824.97
2023-02-17T23:44:51.547Z,95824.88
2023-02-17T23:48:01.407Z,95829.38
2023-02-17T23:51:09.675Z,95817.63
2023-02-17T23:54:17.761Z,95819.56
2023-02-17T23:57:29.661Z,95823.78
